Time;durP1;ratioP1;P1;durP2;ratioP2;P2;SDS_P1;SDS_P2;PMS_P1;PMS_P2;Temp;Humidity;BMP_temperature;BMP_pressure;BME280_temperature;BME280_humidity;BME280_pressure;Samples;Min_cycle;Max_cycle;Signal;HPM_P1;HPM_P2
2022/11/30 00:00:18;;;;;;;52.37;37.77;;;9.90;1.00;;;;;;5011209;28;20118;-65
2022/11/30 00:02:44;;;;;;;51.10;38.10;;;10.00;1.00;;;;;;5010065;28;20030;-65
2022/11/30 00:05:11;;;;;;;50.77;38.40;;;9.90;1.00;;;;;;5015614;28;20091;-65
2022/11/30 00:07:37;;;;;;;54.93;39.87;;;10.00;1.00;;;;;;5026321;28;20451;-65
2022/11/30 00:48:55;;;;;;;61.23;42.60;;;9.70;1.00;;;;;;5010216;28;20581;-64
2022/11/30 00:51:20;;;;;;;52.28;40.47;;;9.80;1.00;;;;;;5011530;28;20033;-65
2022/11/30 00:53:46;;;;;;;55.13;41.90;;;9.80;1.00;;;;;;5012941;28;20053;-65
2022/11/30 00:56:12;;;;;;;57.38;42.22;;;9.70;1.00;;;;;;5010847;28;20022;-65
2022/11/30 00:58:38;;;;;;;52.93;40.10;;;9.80;1.00;;;;;;5017014;28;20022;-65
2022/11/30 01:01:04;;;;;;;57.60;42.53;;;9.70;1.00;;;;;;5015906;28;20423;-64
2022/11/30 01:03:30;;;;;;;58.37;42.53;;;9.70;1.00;;;;;;5014314;28;20470;-65
2022/11/30 01:06:04;;;;;;;56.43;41.70;;;9.80;1.00;;;;;;5019960;28;20113;-65
2022/11/30 01:27:52;;;;;;;56.07;41.53;;;9.70;1.00;;;;;;5007719;28;20017;-65
2022/11/30 01:33:04;;;;;;;56.67;40.50;;;9.70;1.00;;;;;;5034610;28;20100;-65
2022/11/30 01:35:30;;;;;;;57.60;40.67;;;9.70;1.00;;;;;;5034165;28;20060;-64
2022/11/30 01:37:55;;;;;;;56.57;40.73;;;9.70;1.00;;;;;;5031213;28;20470;-64
2022/11/30 01:40:21;;;;;;;53.37;37.47;;;9.70;1.00;;;;;;5034254;28;20030;-64
2022/11/30 01:42:46;;;;;;;52.07;37.90;;;9.70;1.00;;;;;;5034059;28;20053;-65
2022/11/30 01:45:13;;;;;;;56.93;40.53;;;9.70;1.00;;;;;;5034194;28;20048;-65
2022/11/30 01:47:42;;;;;;;54.37;39.87;;;9.70;1.00;;;;;;5033109;28;20035;-65
2022/11/30 01:50:15;;;;;;;53.53;39.53;;;9.70;1.00;;;;;;5019921;28;20050;-64
2022/11/30 01:52:49;;;;;;;51.20;37.93;;;9.70;1.00;;;;;;5033993;28;20041;-64
2022/11/30 01:55:37;;;;;;;51.75;37.60;;;9.70;1.00;;;;;;5034305;28;20032;-64
2022/11/30 01:58:08;;;;;;;55.93;40.23;;;9.70;1.00;;;;;;5033033;28;20026;-65
2022/11/30 02:00:34;;;;;;;56.23;39.83;;;9.70;1.00;;;;;;5033978;28;20036;-65
2022/11/30 02:03:15;;;;;;;50.40;38.40;;;9.60;1.00;;;;;;5028067;28;20030;-64
2022/11/30 02:05:41;;;;;;;48.53;36.23;;;9.60;1.00;;;;;;5007167;28;20037;-64
2022/11/30 02:08:09;;;;;;;47.75;36.75;;;9.60;1.00;;;;;;5033646;28;20033;-64
2022/11/30 02:10:42;;;;;;;48.57;35.40;;;9.60;1.00;;;;;;5033560;28;20371;-65
2022/11/30 02:13:39;;;;;;;51.83;36.17;;;9.50;1.00;;;;;;5021600;28;20022;-65
2022/11/30 02:16:13;;;;;;;47.63;35.60;;;9.50;1.00;;;;;;5012911;28;20026;-64
2022/11/30 02:18:41;;;;;;;50.72;36.85;;;9.50;1.00;;;;;;5033311;28;20029;-64
2022/11/30 02:21:37;;;;;;;50.37;35.47;;;9.40;1.00;;;;;;5032825;28;20037;-65
2022/11/30 02:24:11;;;;;;;53.40;35.88;;;9.40;1.00;;;;;;5032952;28;20116;-64
2022/11/30 02:26:58;;;;;;;46.67;35.38;;;9.40;1.00;;;;;;5031463;28;20021;-64
2022/11/30 02:29:36;;;;;;;47.47;35.90;;;9.40;1.00;;;;;;5032714;28;20100;-64
2022/11/30 02:32:16;;;;;;;47.30;36.60;;;9.40;1.00;;;;;;5032795;28;20057;-65
2022/11/30 02:34:45;;;;;;;46.37;35.13;;;9.40;1.00;;;;;;5013151;28;20061;-65
2022/11/30 02:37:13;;;;;;;45.70;34.83;;;9.30;1.00;;;;;;5013316;28;20049;-65
2022/11/30 02:39:39;;;;;;;46.37;34.90;;;9.30;1.00;;;;;;5014292;28;20026;-65
2022/11/30 02:42:11;;;;;;;47.40;35.50;;;9.30;1.00;;;;;;5017533;28;20530;-64
2022/11/30 02:44:37;;;;;;;45.83;34.93;;;9.30;1.00;;;;;;5015519;28;20041;-64
2022/11/30 02:47:32;;;;;;;48.07;35.17;;;9.20;1.00;;;;;;5022476;28;20112;-65
2022/11/30 02:50:03;;;;;;;44.50;33.80;;;9.30;1.00;;;;;;5014631;28;20140;-64
2022/11/30 02:52:30;;;;;;;44.87;32.70;;;9.10;1.00;;;;;;5025026;28;20113;-64
2022/11/30 02:55:05;;;;;;;43.60;31.63;;;9.10;1.00;;;;;;5015913;28;20531;-64
2022/11/30 02:57:31;;;;;;;40.42;31.88;;;9.20;1.00;;;;;;5016081;28;20440;-65
2022/11/30 02:59:57;;;;;;;41.97;31.27;;;9.10;1.00;;;;;;5031803;28;20459;-64
2022/11/30 03:02:23;;;;;;;41.47;31.37;;;9.10;1.00;;;;;;5021570;28;20394;-64
2022/11/30 03:04:48;;;;;;;43.67;32.27;;;9.00;1.00;;;;;;5018856;28;20065;-64
2022/11/30 03:07:14;;;;;;;45.53;33.13;;;9.10;1.00;;;;;;5031675;28;20356;-64
2022/11/30 03:09:39;;;;;;;43.03;32.03;;;9.10;1.00;;;;;;5032397;28;20053;-65
2022/11/30 03:12:05;;;;;;;42.53;33.17;;;9.10;1.00;;;;;;5032100;28;20025;-64
2022/11/30 03:14:31;;;;;;;39.53;31.03;;;9.10;1.00;;;;;;5026347;28;20033;-65
2022/11/30 03:16:56;;;;;;;48.20;33.27;;;9.10;1.00;;;;;;5032182;28;20544;-65
2022/11/30 03:19:22;;;;;;;43.40;32.53;;;9.00;1.00;;;;;;5032296;28;20036;-64
2022/11/30 03:21:47;;;;;;;43.13;31.07;;;9.00;1.00;;;;;;5027098;28;20061;-64
2022/11/30 03:24:13;;;;;;;42.10;32.93;;;9.10;1.00;;;;;;5023382;28;20057;-64
2022/11/30 03:26:39;;;;;;;43.63;33.97;;;9.00;1.00;;;;;;5014783;28;20053;-65
2022/11/30 03:29:04;;;;;;;42.47;31.30;;;8.90;1.00;;;;;;5028056;28;20027;-65
2022/11/30 03:31:30;;;;;;;44.90;33.33;;;9.00;1.00;;;;;;5032222;28;20087;-65
2022/11/30 03:33:56;;;;;;;47.50;34.53;;;8.90;1.00;;;;;;5029423;28;20025;-64
2022/11/30 03:36:21;;;;;;;48.13;35.10;;;8.90;1.00;;;;;;5017001;28;20459;-65
2022/11/30 03:38:47;;;;;;;44.23;33.50;;;9.00;1.00;;;;;;5027129;28;20022;-64
2022/11/30 03:41:15;;;;;;;44.77;34.47;;;8.90;1.00;;;;;;5028619;28;20131;-65
2022/11/30 03:43:42;;;;;;;49.23;33.30;;;8.90;1.00;;;;;;5031852;28;20032;-65
2022/11/30 03:46:07;;;;;;;46.57;32.70;;;8.90;1.00;;;;;;5031864;28;20029;-65
2022/11/30 03:48:34;;;;;;;47.47;35.20;;;8.90;1.00;;;;;;5031750;28;20021;-65
2022/11/30 03:51:00;;;;;;;49.10;34.67;;;8.80;1.00;;;;;;5007925;28;20061;-65
2022/11/30 03:53:26;;;;;;;45.70;35.80;;;8.80;1.00;;;;;;5001894;28;20026;-65
2022/11/30 03:55:53;;;;;;;47.53;34.53;;;8.80;1.00;;;;;;5010106;28;20018;-65
2022/11/30 03:58:20;;;;;;;45.40;35.40;;;8.80;1.00;;;;;;5008318;28;20037;-66
2022/11/30 04:00:45;;;;;;;45.43;35.40;;;8.80;1.00;;;;;;5007577;28;20034;-66
2022/11/30 04:03:11;;;;;;;49.27;36.17;;;8.70;1.00;;;;;;5010266;28;20068;-66
2022/11/30 04:05:37;;;;;;;47.43;35.00;;;8.70;1.00;;;;;;4996129;28;20519;-65
2022/11/30 04:08:03;;;;;;;47.90;36.10;;;8.80;1.00;;;;;;5007610;28;20164;-65
2022/11/30 04:10:29;;;;;;;49.90;36.57;;;8.80;1.00;;;;;;5011674;28;20167;-65
2022/11/30 04:12:54;;;;;;;50.10;34.67;;;8.80;1.00;;;;;;5010573;28;20044;-65
2022/11/30 04:15:20;;;;;;;50.40;35.77;;;8.80;1.00;;;;;;5011801;28;20021;-65
2022/11/30 04:17:46;;;;;;;48.00;36.50;;;8.80;1.00;;;;;;5002156;28;20076;-66
2022/11/30 04:20:11;;;;;;;50.50;37.00;;;8.80;1.00;;;;;;5010497;28;20084;-65
2022/11/30 04:22:37;;;;;;;45.77;34.47;;;8.70;1.00;;;;;;5009777;28;20021;-65
2022/11/30 04:25:03;;;;;;;48.33;36.37;;;8.70;1.00;;;;;;5010615;28;20044;-66
2022/11/30 04:27:29;;;;;;;48.90;37.53;;;8.70;1.00;;;;;;5021229;28;20029;-65
2022/11/30 04:29:54;;;;;;;46.13;35.23;;;8.70;1.00;;;;;;5028324;28;20087;-65
2022/11/30 04:32:20;;;;;;;51.43;37.27;;;8.70;1.00;;;;;;5010165;28;20306;-66
2022/11/30 04:34:46;;;;;;;48.77;34.40;;;8.70;1.00;;;;;;5024841;28;20025;-65
2022/11/30 04:37:12;;;;;;;53.37;38.53;;;8.70;1.00;;;;;;5021007;28;20025;-65
2022/11/30 04:39:37;;;;;;;48.90;37.10;;;8.60;1.00;;;;;;5022976;28;20471;-65
2022/11/30 04:42:03;;;;;;;46.60;35.10;;;8.70;1.00;;;;;;5015770;28;20071;-66
2022/11/30 04:45:46;;;;;;;54.57;38.10;;;8.60;1.00;;;;;;5031621;28;20060;-65
2022/11/30 04:49:26;;;;;;;48.57;36.60;;;8.50;1.00;;;;;;5001118;28;20026;-65
2022/11/30 04:52:05;;;;;;;52.60;37.90;;;8.60;1.00;;;;;;5009587;28;20496;-65
2022/11/30 04:54:30;;;;;;;53.47;39.33;;;8.60;1.00;;;;;;5031168;28;20144;-66
2022/11/30 04:56:56;;;;;;;50.00;37.67;;;8.50;1.00;;;;;;5024822;28;20044;-66
2022/11/30 04:59:21;;;;;;;53.83;37.77;;;8.50;1.00;;;;;;5016972;28;20049;-66
2022/11/30 05:01:47;;;;;;;51.93;38.10;;;8.60;1.00;;;;;;5026146;28;20021;-66
2022/11/30 05:04:13;;;;;;;50.53;36.30;;;8.50;1.00;;;;;;5030859;28;20040;-66
2022/11/30 05:06:38;;;;;;;50.27;38.13;;;8.50;1.00;;;;;;5027885;28;20029;-66
2022/11/30 05:09:04;;;;;;;52.03;38.23;;;8.50;1.00;;;;;;5025544;28;20065;-65
2022/11/30 05:11:30;;;;;;;47.87;35.00;;;8.50;1.00;;;;;;5026041;28;20052;-66
2022/11/30 05:13:55;;;;;;;49.80;35.17;;;8.60;1.00;;;;;;5030956;28;20148;-66
2022/11/30 05:16:21;;;;;;;50.50;37.07;;;8.50;1.00;;;;;;5030837;28;20029;-66
2022/11/30 05:18:46;;;;;;;51.43;38.33;;;8.60;1.00;;;;;;5012602;28;20041;-66
2022/11/30 05:21:12;;;;;;;52.50;37.93;;;8.50;1.00;;;;;;5020890;28;20506;-66
2022/11/30 05:23:38;;;;;;;43.63;34.53;;;8.60;1.00;;;;;;5023102;28;20113;-66
2022/11/30 05:26:03;;;;;;;54.63;38.57;;;8.60;1.00;;;;;;5023531;28;20108;-66
2022/11/30 05:28:29;;;;;;;54.27;39.87;;;8.60;1.00;;;;;;5017861;28;20025;-66
2022/11/30 05:30:55;;;;;;;52.40;39.20;;;8.40;1.00;;;;;;5013774;28;20364;-66
2022/11/30 05:33:20;;;;;;;50.30;36.17;;;8.50;1.00;;;;;;5031979;28;20029;-65
2022/11/30 05:35:46;;;;;;;54.20;36.80;;;8.60;1.00;;;;;;5034373;28;20022;-66
2022/11/30 05:38:11;;;;;;;49.93;36.90;;;8.50;1.00;;;;;;5024536;28;20497;-66
2022/11/30 05:40:37;;;;;;;49.13;36.57;;;8.40;1.00;;;;;;5010503;28;20029;-66
2022/11/30 05:43:04;;;;;;;54.03;37.57;;;8.30;1.00;;;;;;5022563;28;20029;-66
2022/11/30 05:45:30;;;;;;;59.73;43.17;;;8.40;1.00;;;;;;5028001;28;20118;-66
2022/11/30 05:47:56;;;;;;;56.67;41.33;;;8.20;1.00;;;;;;5033885;28;20056;-66
2022/11/30 05:50:21;;;;;;;59.63;42.23;;;8.30;1.00;;;;;;5017461;28;20054;-66
2022/11/30 05:52:47;;;;;;;57.53;41.07;;;8.40;1.00;;;;;;5024529;28;20089;-66
2022/11/30 05:55:13;;;;;;;59.27;42.57;;;8.50;1.00;;;;;;5026540;28;20060;-66
2022/11/30 05:57:39;;;;;;;61.37;41.17;;;8.50;1.00;;;;;;5033827;28;20141;-66
2022/11/30 06:00:07;;;;;;;50.60;36.13;;;8.50;1.00;;;;;;5024596;28;20053;-66
2022/11/30 06:02:33;;;;;;;53.70;39.90;;;8.50;1.00;;;;;;5013694;28;20026;-66
2022/11/30 06:04:58;;;;;;;58.37;39.30;;;8.40;1.00;;;;;;5018343;28;20045;-66
2022/11/30 06:07:24;;;;;;;50.67;37.37;;;8.40;1.00;;;;;;5032085;28;20486;-66
2022/11/30 06:09:49;;;;;;;52.33;38.53;;;8.40;1.00;;;;;;5029192;28;20021;-67
2022/11/30 06:12:15;;;;;;;55.57;38.10;;;8.40;1.00;;;;;;5015217;28;20464;-66
2022/11/30 06:14:41;;;;;;;54.73;37.50;;;8.20;1.00;;;;;;5033846;28;20051;-66
2022/11/30 06:17:07;;;;;;;56.83;37.20;;;8.20;1.00;;;;;;5029432;28;20025;-66
2022/11/30 06:19:32;;;;;;;56.83;38.00;;;8.20;1.00;;;;;;5033614;28;20036;-66
2022/11/30 06:21:58;;;;;;;57.37;39.80;;;8.30;1.00;;;;;;5026964;28;20483;-66
2022/11/30 06:24:24;;;;;;;57.80;37.83;;;8.50;1.00;;;;;;5019005;28;20117;-66
2022/11/30 06:26:49;;;;;;;54.33;37.73;;;8.40;1.00;;;;;;5018287;28;20028;-66
2022/11/30 06:29:15;;;;;;;55.23;36.30;;;8.20;1.00;;;;;;5028014;28;20037;-66
2022/11/30 06:31:40;;;;;;;63.07;40.77;;;8.30;1.00;;;;;;5021879;28;20022;-66
2022/11/30 06:34:06;;;;;;;57.33;38.37;;;8.20;1.00;;;;;;5022867;28;20042;-65
2022/11/30 06:36:32;;;;;;;60.07;38.23;;;8.40;1.00;;;;;;5013088;28;20022;-65
2022/11/30 06:38:57;;;;;;;56.37;37.67;;;8.50;1.00;;;;;;5013366;28;20026;-65
2022/11/30 06:41:23;;;;;;;51.63;37.27;;;8.50;1.00;;;;;;5008400;28;20108;-65
2022/11/30 06:43:49;;;;;;;52.97;36.60;;;8.50;1.00;;;;;;5014588;28;20117;-66
2022/11/30 06:46:14;;;;;;;53.37;38.27;;;8.50;1.00;;;;;;5031285;28;20105;-65
2022/11/30 06:48:40;;;;;;;51.87;35.93;;;8.50;1.00;;;;;;5018811;28;20026;-65
2022/11/30 06:51:07;;;;;;;61.43;38.47;;;8.50;1.00;;;;;;5022531;28;20121;-66
2022/11/30 06:53:33;;;;;;;63.23;40.53;;;8.50;1.00;;;;;;5018386;28;20026;-65
2022/11/30 06:56:03;;;;;;;62.77;41.27;;;8.50;1.00;;;;;;5026821;28;20486;-65
2022/11/30 06:58:29;;;;;;;61.70;40.83;;;8.50;1.00;;;;;;5022019;28;20084;-65
2022/11/30 07:00:54;;;;;;;58.47;39.03;;;8.30;1.00;;;;;;5025258;28;20029;-66
2022/11/30 07:03:20;;;;;;;58.10;39.23;;;8.40;1.00;;;;;;5021871;28;20034;-66
2022/11/30 07:05:46;;;;;;;60.50;40.73;;;8.60;1.00;;;;;;5018156;28;20456;-66
2022/11/30 07:08:13;;;;;;;61.43;40.27;;;8.50;1.00;;;;;;5018370;28;20420;-66
2022/11/30 07:10:43;;;;;;;61.70;39.53;;;8.40;1.00;;;;;;5019393;28;20038;-66
2022/11/30 07:13:12;;;;;;;64.00;38.07;;;8.50;1.00;;;;;;5030311;28;20367;-66
2022/11/30 07:15:39;;;;;;;64.57;42.73;;;8.60;1.00;;;;;;5024349;28;20029;-65
2022/11/30 07:18:04;;;;;;;64.77;40.80;;;8.60;1.00;;;;;;5030664;28;20383;-66
2022/11/30 07:20:30;;;;;;;63.20;41.90;;;8.60;1.00;;;;;;5021186;28;20033;-66
2022/11/30 07:22:56;;;;;;;61.00;40.47;;;8.60;1.00;;;;;;5025893;28;20030;-66
2022/11/30 07:28:07;;;;;;;60.00;39.47;;;8.60;1.00;;;;;;5023730;28;20560;-66
2022/11/30 07:30:33;;;;;;;67.67;42.27;;;8.70;1.00;;;;;;5032267;28;20021;-66
2022/11/30 07:33:43;;;;;;;63.67;42.43;;;8.60;1.00;;;;;;5027556;28;20037;-66
2022/11/30 07:36:09;;;;;;;67.60;43.77;;;8.60;1.00;;;;;;5017268;28;20029;-67
2022/11/30 07:38:35;;;;;;;70.93;43.33;;;8.70;1.00;;;;;;5032259;28;20159;-66
2022/11/30 07:41:00;;;;;;;63.63;41.97;;;8.60;1.00;;;;;;5027419;28;20375;-66
2022/11/30 07:43:27;;;;;;;65.53;44.33;;;8.80;1.00;;;;;;5032116;28;20448;-66
2022/11/30 07:45:53;;;;;;;63.67;43.23;;;8.80;1.00;;;;;;5031826;28;20033;-66
2022/11/30 07:48:20;;;;;;;62.30;41.07;;;8.80;1.00;;;;;;5023661;28;20028;-66
2022/11/30 07:50:47;;;;;;;71.13;42.90;;;8.90;1.00;;;;;;5028639;28;20083;-66
2022/11/30 07:53:13;;;;;;;69.30;44.07;;;8.90;1.00;;;;;;5031876;28;20021;-65
2022/11/30 07:55:38;;;;;;;69.17;43.43;;;9.00;1.00;;;;;;5031222;28;20460;-65
2022/11/30 07:58:04;;;;;;;71.93;44.00;;;8.90;1.00;;;;;;5031701;28;20041;-58
2022/11/30 08:00:30;;;;;;;66.77;43.10;;;9.00;1.00;;;;;;5028030;28;20125;-66
2022/11/30 08:02:55;;;;;;;59.03;40.30;;;8.80;1.00;;;;;;5021840;28;20029;-59
2022/11/30 08:05:22;;;;;;;67.90;44.50;;;9.00;1.00;;;;;;5031545;28;20041;-59
2022/11/30 08:07:51;;;;;;;58.17;40.40;;;9.10;1.00;;;;;;5031820;28;20028;-59
2022/11/30 08:10:22;;;;;;;62.00;41.53;;;9.30;1.00;;;;;;5031591;28;20022;-60
2022/11/30 08:12:48;;;;;;;68.67;40.63;;;9.30;1.00;;;;;;5017631;28;20383;-60
2022/11/30 08:15:14;;;;;;;73.53;43.83;;;9.30;1.00;;;;;;5031592;28;20027;-59
2022/11/30 08:17:40;;;;;;;66.47;42.70;;;9.30;1.00;;;;;;5031711;28;20041;-59
2022/11/30 08:20:07;;;;;;;62.07;42.30;;;9.40;1.00;;;;;;5020429;28;20022;-58
2022/11/30 08:22:33;;;;;;;59.27;41.30;;;9.50;1.00;;;;;;5015402;28;20517;-59
2022/11/30 08:24:59;;;;;;;65.33;42.33;;;9.50;1.00;;;;;;5011975;28;20172;-59
2022/11/30 08:27:25;;;;;;;68.97;42.37;;;9.50;1.00;;;;;;5011309;28;20499;-59
2022/11/30 08:29:51;;;;;;;61.60;41.40;;;9.50;1.00;;;;;;5025001;28;20021;-59
2022/11/30 08:32:16;;;;;;;68.53;42.90;;;9.50;1.00;;;;;;5031520;28;20112;-59
2022/11/30 08:34:42;;;;;;;69.43;43.83;;;9.60;1.00;;;;;;5031410;28;20097;-59
2022/11/30 08:37:08;;;;;;;60.90;41.87;;;9.60;1.00;;;;;;5026163;28;20108;-59
2022/11/30 08:39:33;;;;;;;67.40;44.45;;;9.70;1.00;;;;;;5030005;28;20498;-59
2022/11/30 08:42:00;;;;;;;64.30;44.55;;;9.70;1.00;;;;;;5027309;28;20029;-59
2022/11/30 08:44:27;;;;;;;66.80;45.23;;;9.80;1.00;;;;;;5031638;28;20041;-60
2022/11/30 08:46:53;;;;;;;71.50;46.97;;;9.90;1.00;;;;;;5031170;28;20471;-59
2022/11/30 08:49:20;;;;;;;68.05;45.72;;;9.70;1.00;;;;;;5026351;28;20084;-58
2022/11/30 08:51:46;;;;;;;65.53;44.55;;;9.80;1.00;;;;;;5015791;28;20052;-59
2022/11/30 08:54:12;;;;;;;70.88;45.15;;;9.90;1.00;;;;;;5027422;28;20025;-59
2022/11/30 08:56:37;;;;;;;64.97;44.03;;;9.90;1.00;;;;;;5031489;28;20052;-59
2022/11/30 08:59:03;;;;;;;63.85;42.97;;;10.00;1.00;;;;;;5016455;28;20088;-58
2022/11/30 09:01:29;;;;;;;76.32;46.30;;;9.90;1.00;;;;;;5021765;28;20117;-57
2022/11/30 09:03:56;;;;;;;66.20;44.05;;;10.00;1.00;;;;;;5028034;28;20049;-59
2022/11/30 09:06:27;;;;;;;67.60;44.63;;;9.90;1.00;;;;;;5032878;28;20376;-59
2022/11/30 09:08:54;;;;;;;64.38;43.97;;;9.90;1.00;;;;;;5021223;28;20075;-58
2022/11/30 09:11:21;;;;;;;65.13;42.70;;;9.80;1.00;;;;;;5033769;28;20460;-58
2022/11/30 09:13:47;;;;;;;67.38;43.83;;;9.90;1.00;;;;;;5034787;28;20033;-58
2022/11/30 09:16:15;;;;;;;65.87;43.27;;;9.90;1.00;;;;;;5022244;28;20032;-59
2022/11/30 09:18:41;;;;;;;67.85;45.78;;;10.00;1.00;;;;;;5031720;28;20033;-59
2022/11/30 09:21:08;;;;;;;64.45;43.50;;;10.00;1.00;;;;;;5034740;28;20353;-59
2022/11/30 09:23:35;;;;;;;60.30;43.88;;;10.10;1.00;;;;;;5033435;28;20105;-59
2022/11/30 09:26:03;;;;;;;60.63;43.63;;;10.00;1.00;;;;;;5032055;28;20034;-57
2022/11/30 09:28:29;;;;;;;59.90;43.38;;;10.00;1.00;;;;;;5034693;28;20106;-59
2022/11/30 09:31:01;;;;;;;61.20;43.80;;;9.90;1.00;;;;;;5028926;28;20025;-58
2022/11/30 09:33:27;;;;;;;63.15;43.78;;;9.90;1.00;;;;;;5022625;28;20037;-59
2022/11/30 09:36:00;;;;;;;53.17;39.28;;;9.90;1.00;;;;;;5027233;28;20487;-59
2022/11/30 09:38:27;;;;;;;56.75;40.33;;;9.90;1.00;;;;;;5020620;28;20025;-59
2022/11/30 09:41:00;;;;;;;56.70;41.22;;;9.90;1.00;;;;;;5024964;28;20038;-57
2022/11/30 09:43:49;;;;;;;57.47;41.28;;;9.90;1.00;;;;;;5024766;28;20045;-58
2022/11/30 09:46:14;;;;;;;57.55;40.97;;;10.00;1.00;;;;;;5029537;28;20491;-59
2022/11/30 09:49:03;;;;;;;80.53;45.35;;;10.10;1.00;;;;;;5009115;28;20036;-59
2022/11/30 09:51:43;;;;;;;63.45;41.25;;;10.10;1.00;;;;;;5033934;28;20049;-60
2022/11/30 09:54:19;;;;;;;95.85;46.70;;;10.20;1.00;;;;;;5024532;28;20049;-60
2022/11/30 09:56:45;;;;;;;56.90;41.17;;;10.10;1.00;;;;;;5030539;28;20021;-60
2022/11/30 09:59:19;;;;;;;63.95;42.45;;;10.00;1.00;;;;;;5034108;28;20030;-59
2022/11/30 10:01:47;;;;;;;64.68;47.00;;;10.10;1.00;;;;;;5034191;28;20368;-60
2022/11/30 10:04:27;;;;;;;64.57;44.97;;;10.20;1.00;;;;;;5028605;28;20038;-60
2022/11/30 10:07:01;;;;;;;60.83;43.50;;;10.20;1.00;;;;;;5031126;28;20029;-60
2022/11/30 10:09:45;;;;;;;60.42;43.67;;;10.10;1.00;;;;;;5032607;28;20030;-60
2022/11/30 10:12:22;;;;;;;64.47;42.33;;;9.90;1.00;;;;;;5033619;28;20104;-59
2022/11/30 10:15:02;;;;;;;60.67;42.05;;;9.90;1.00;;;;;;5026657;28;20475;-59
2022/11/30 10:17:49;;;;;;;59.72;40.30;;;10.10;1.00;;;;;;5019583;28;20021;-60
2022/11/30 10:20:35;;;;;;;71.43;46.72;;;10.10;1.00;;;;;;5033756;28;20183;-59
2022/11/30 10:23:41;;;;;;;51.85;38.63;;;9.80;1.00;;;;;;5033606;28;20033;-59
2022/11/30 10:26:13;;;;;;;53.58;38.25;;;10.10;1.00;;;;;;5009133;28;20061;-59
2022/11/30 10:28:53;;;;;;;54.72;36.92;;;10.20;1.00;;;;;;5033608;28;20026;-59
2022/11/30 10:31:29;;;;;;;50.95;36.78;;;10.20;1.00;;;;;;5013438;28;20044;-59
2022/11/30 10:34:01;;;;;;;51.92;37.40;;;10.20;1.00;;;;;;5023383;28;20046;-59
2022/11/30 10:36:35;;;;;;;52.10;37.90;;;10.10;1.00;;;;;;5016315;28;20032;-60
2022/11/30 10:39:28;;;;;;;51.13;38.17;;;10.10;1.00;;;;;;5033792;28;20025;-60
2022/11/30 10:42:20;;;;;;;51.22;38.22;;;10.30;1.00;;;;;;5006644;28;20075;-60
2022/11/30 10:44:56;;;;;;;51.53;38.90;;;10.20;1.00;;;;;;5023939;28;20264;-59
2022/11/30 10:47:27;;;;;;;45.95;36.67;;;10.20;1.00;;;;;;5016403;28;20018;-59
2022/11/30 10:49:53;;;;;;;55.40;37.35;;;10.30;1.00;;;;;;5022250;28;20105;-59
2022/11/30 10:52:29;;;;;;;49.38;36.40;;;10.30;1.00;;;;;;5033378;28;20110;-59
2022/11/30 10:54:56;;;;;;;47.00;35.80;;;10.30;1.00;;;;;;5011026;28;20032;-60
2022/11/30 10:57:26;;;;;;;43.03;33.55;;;10.30;1.00;;;;;;5033066;28;20101;-60
2022/11/30 10:59:55;;;;;;;46.72;34.38;;;10.20;1.00;;;;;;5019575;28;20026;-60
2022/11/30 11:02:37;;;;;;;43.22;32.30;;;10.30;1.00;;;;;;5033291;28;20036;-60
2022/11/30 11:05:15;;;;;;;41.55;32.45;;;10.30;1.00;;;;;;5032705;28;20506;-59
2022/11/30 11:07:48;;;;;;;42.20;31.73;;;10.30;1.00;;;;;;5032562;28;20174;-60
2022/11/30 11:10:33;;;;;;;47.00;32.85;;;10.30;1.00;;;;;;5032756;28;20030;-60
2022/11/30 11:12:58;;;;;;;44.83;33.00;;;10.20;1.00;;;;;;5032869;28;20017;-60
2022/11/30 11:15:29;;;;;;;40.53;31.30;;;10.30;1.00;;;;;;5028545;28;20505;-60
2022/11/30 11:18:24;;;;;;;39.05;31.10;;;10.30;1.00;;;;;;5032775;28;20026;-60
2022/11/30 11:21:04;;;;;;;40.83;32.38;;;10.30;1.00;;;;;;5031091;28;20021;-60
2022/11/30 11:23:36;;;;;;;42.97;32.85;;;10.10;1.00;;;;;;5020267;28;20032;-60
2022/11/30 11:26:04;;;;;;;43.08;32.53;;;10.00;1.00;;;;;;5032202;28;20041;-59
2022/11/30 11:28:30;;;;;;;48.05;35.17;;;10.20;1.00;;;;;;5026503;28;20166;-60
2022/11/30 11:30:57;;;;;;;46.95;33.92;;;10.30;1.00;;;;;;5026947;28;20038;-59
2022/11/30 11:33:28;;;;;;;52.50;35.20;;;10.10;1.00;;;;;;5026414;28;20475;-60
2022/11/30 11:35:55;;;;;;;43.70;31.73;;;10.20;1.00;;;;;;5025360;28;20052;-59
2022/11/30 11:38:29;;;;;;;50.20;33.70;;;10.30;1.00;;;;;;5027503;28;20427;-59
2022/11/30 11:41:02;;;;;;;43.88;32.70;;;10.20;1.00;;;;;;5024693;28;20017;-59
2022/11/30 11:43:30;;;;;;;47.53;33.95;;;10.20;1.00;;;;;;5017719;28;20021;-59
2022/11/30 11:46:12;;;;;;;46.35;34.10;;;10.20;1.00;;;;;;5031849;28;20033;-59
2022/11/30 11:48:44;;;;;;;45.63;34.80;;;10.30;1.00;;;;;;5032129;28;20104;-59
2022/11/30 11:51:10;;;;;;;49.63;36.05;;;10.20;1.00;;;;;;5032192;28;20073;-59
2022/11/30 11:53:54;;;;;;;44.60;34.60;;;10.20;1.00;;;;;;5030314;28;20102;-59
2022/11/30 11:56:24;;;;;;;46.95;35.42;;;10.20;1.00;;;;;;5017274;28;20044;-60
2022/11/30 11:58:54;;;;;;;41.05;32.53;;;10.30;1.00;;;;;;5018490;28;20025;-59
2022/11/30 12:01:38;;;;;;;46.53;34.30;;;10.30;1.00;;;;;;5031958;28;20021;-59
2022/11/30 12:04:16;;;;;;;51.05;35.33;;;10.10;1.00;;;;;;5009332;28;20065;-60
2022/11/30 12:06:44;;;;;;;46.13;35.22;;;10.30;1.00;;;;;;5006603;28;20025;-59
2022/11/30 12:09:21;;;;;;;42.72;34.75;;;10.30;1.00;;;;;;5032008;28;20018;-59
2022/11/30 12:11:48;;;;;;;49.67;36.28;;;10.40;1.00;;;;;;5032259;28;20387;-58
2022/11/30 12:14:18;;;;;;;47.75;35.38;;;10.20;1.00;;;;;;5032135;28;20413;-60
2022/11/30 12:17:45;;;;;;;48.78;37.20;;;10.20;1.00;;;;;;5031515;28;20051;-60
2022/11/30 12:20:13;;;;;;;48.50;36.17;;;10.20;1.00;;;;;;4996188;28;20088;-58
2022/11/30 12:22:57;;;;;;;52.45;37.10;;;10.20;1.00;;;;;;5010082;28;20034;-60
2022/11/30 12:25:29;;;;;;;50.75;37.65;;;10.20;1.00;;;;;;5020599;28;20506;-59
2022/11/30 12:28:18;;;;;;;49.63;36.83;;;10.20;1.00;;;;;;5030705;28;20473;-58
2022/11/30 12:31:03;;;;;;;48.13;36.13;;;10.30;1.00;;;;;;5006285;28;20021;-60
2022/11/30 12:33:53;;;;;;;45.03;34.97;;;10.30;1.00;;;;;;5024739;28;20037;-59
2022/11/30 12:37:13;;;;;;;49.10;36.58;;;10.40;1.00;;;;;;5027371;28;20095;-58
2022/11/30 12:39:49;;;;;;;57.10;38.50;;;10.40;1.00;;;;;;4995480;28;20112;-60
2022/11/30 12:42:38;;;;;;;50.95;35.35;;;10.40;1.00;;;;;;5012236;28;20034;-60
2022/11/30 12:45:15;;;;;;;52.33;37.05;;;10.50;1.00;;;;;;5014755;28;20081;-60
2022/11/30 12:48:01;;;;;;;48.33;35.33;;;10.50;1.00;;;;;;5015314;28;20022;-59
2022/11/30 12:50:30;;;;;;;55.45;39.58;;;10.30;1.00;;;;;;5002679;28;20045;-59
2022/11/30 12:53:08;;;;;;;44.65;35.22;;;10.20;1.00;;;;;;5015691;28;20026;-59
2022/11/30 12:55:48;;;;;;;49.70;36.25;;;10.30;1.00;;;;;;5015427;28;20511;-60
2022/11/30 12:58:19;;;;;;;45.17;35.70;;;10.30;1.00;;;;;;5011231;28;20105;-59
2022/11/30 13:01:04;;;;;;;45.70;34.90;;;10.40;1.00;;;;;;5034504;28;20021;-59
2022/11/30 13:03:51;;;;;;;47.55;36.83;;;10.40;1.00;;;;;;5014980;28;20157;-59
2022/11/30 13:06:26;;;;;;;50.33;34.67;;;10.40;1.00;;;;;;5018711;28;20089;-59
2022/11/30 13:09:43;;;;;;;52.42;35.70;;;10.30;1.00;;;;;;5035064;28;20033;-59
2022/11/30 13:15:33;;;;;;;48.58;35.03;;;10.30;1.00;;;;;;5012372;28;20041;-59
2022/11/30 13:18:00;;;;;;;48.13;36.40;;;10.30;1.00;;;;;;4999833;28;20076;-59
2022/11/30 13:21:00;;;;;;;46.80;36.00;;;10.20;1.00;;;;;;5015016;28;20026;-60
2022/11/30 13:23:37;;;;;;;46.83;35.78;;;10.40;1.00;;;;;;5014925;28;20018;-59
2022/11/30 13:26:02;;;;;;;49.58;37.78;;;10.50;1.00;;;;;;5026745;28;20047;-59
2022/11/30 13:28:40;;;;;;;47.72;36.22;;;10.40;1.00;;;;;;5034705;28;20096;-59
2022/11/30 13:31:30;;;;;;;50.40;37.13;;;10.40;1.00;;;;;;5026919;28;20036;-59
2022/11/30 13:33:58;;;;;;;51.78;37.00;;;10.20;1.00;;;;;;5008809;28;20037;-59
2022/11/30 13:36:32;;;;;;;50.42;35.55;;;10.30;1.00;;;;;;5034491;28;20044;-59
2022/11/30 13:39:13;;;;;;;48.58;36.13;;;10.30;1.00;;;;;;5034520;28;20049;-60
2022/11/30 13:41:40;;;;;;;49.30;37.58;;;10.10;1.00;;;;;;5034426;28;20147;-59
2022/11/30 13:44:36;;;;;;;49.05;36.83;;;10.20;1.00;;;;;;5034254;28;20091;-59
2022/11/30 13:47:04;;;;;;;;;;;10.40;1.00;;;;;;5020597;28;20108;-60
2022/11/30 13:49:34;;;;;;;45.40;33.53;;;10.10;1.00;;;;;;5032909;28;20405;-60
2022/11/30 13:52:00;;;;;;;48.33;34.05;;;10.10;1.00;;;;;;5030592;28;20069;-60
2022/11/30 13:54:49;;;;;;;46.65;34.83;;;10.30;1.00;;;;;;5014067;28;20116;-60
2022/11/30 13:57:23;;;;;;;46.50;34.72;;;10.40;1.00;;;;;;5015764;28;20424;-60
2022/11/30 13:59:50;;;;;;;50.65;35.60;;;10.50;1.00;;;;;;5029707;28;20037;-60
2022/11/30 14:02:52;;;;;;;48.55;34.38;;;10.50;1.00;;;;;;5022724;28;20032;-60
2022/11/30 14:05:18;;;;;;;48.17;33.65;;;10.50;1.00;;;;;;5015370;28;20455;-60
2022/11/30 14:07:50;;;;;;;43.63;31.63;;;10.50;1.00;;;;;;5033861;28;20037;-60
2022/11/30 14:10:36;;;;;;;44.63;32.33;;;10.60;1.00;;;;;;5026052;28;20097;-61